Terminal Aerodrome Forecast
Issued by NWS

Home | Current Version | Previous Version | Text Only | Print | Product List | Glossary On
Versions: 1 2 3 4 5 6 7 8 9 10 11 12 13 14
000
FTAK31 PAFA 291124
TAFABT
TAF
PABT 291124Z 2912/3012 VRB06KT P6SM SCT035 BKN050 OVC100
     FM291800 VRB06KT P6SM VCSH SCT035 BKN050 OVC100
     FM292100 VRB06KT 6SM -SHRA BR SCT025 BKN035 OVC050=

USA.gov is the U.S. government's official web portal to all federal, state and local government web resources and services.